Time;durP1;ratioP1;P1;durP2;ratioP2;P2;SDS_P1;SDS_P2;PMS_P1;PMS_P2;Temp;Humidity;BMP_temperature;BMP_pressure;BME280_temperature;BME280_humidity;BME280_pressure;Samples;Min_cycle;Max_cycle;Signal;HPM_P1;HPM_P2
2022/04/05 00:01:41;;;;;;;12.13;3.15;;;7.20;99.90;;;;;;5054841;28;20037;-88
2022/04/05 00:04:06;;;;;;;14.27;3.30;;;6.70;99.90;;;;;;5058379;28;20022;-86
2022/04/05 00:06:32;;;;;;;12.23;3.15;;;7.10;99.90;;;;;;5041477;28;20052;-87
2022/04/05 00:08:58;;;;;;;12.25;3.00;;;6.60;99.90;;;;;;5058348;28;20033;-88
2022/04/05 00:11:23;;;;;;;13.88;2.92;;;6.60;99.90;;;;;;5055047;28;20040;-88
2022/04/05 00:13:49;;;;;;;13.63;3.60;;;6.60;99.90;;;;;;5034983;28;20037;-88
2022/04/05 00:16:15;;;;;;;13.38;2.70;;;6.60;99.90;;;;;;5034615;28;20038;-87
2022/04/05 00:18:41;;;;;;;17.13;4.13;;;6.70;99.90;;;;;;5032504;28;20090;-88
2022/04/05 00:21:06;;;;;;;12.05;3.47;;;6.70;99.90;;;;;;5033808;28;20073;-88
2022/04/05 00:23:32;;;;;;;14.02;2.78;;;6.70;99.90;;;;;;5032729;28;20124;-88
2022/04/05 00:25:58;;;;;;;14.40;2.58;;;6.60;99.90;;;;;;5033845;28;20053;-89
2022/04/05 00:28:23;;;;;;;7.90;2.75;;;6.60;99.90;;;;;;5032096;28;20083;-88
2022/04/05 00:30:49;;;;;;;8.60;3.08;;;6.60;99.90;;;;;;5033646;28;20472;-88
2022/04/05 00:33:15;;;;;;;14.32;2.97;;;6.60;99.90;;;;;;5032517;28;20071;-88
2022/04/05 00:35:41;;;;;;;14.75;2.65;;;6.50;99.90;;;;;;5033885;28;20452;-88
2022/04/05 00:38:08;;;;;;;13.15;2.10;;;6.60;99.90;;;;;;5016067;28;20053;-88
2022/04/05 00:40:35;;;;;;;18.60;2.67;;;6.60;99.90;;;;;;5032730;28;20057;-88
2022/04/05 00:43:03;;;;;;;13.85;2.70;;;6.60;99.90;;;;;;5032437;28;20085;-88
2022/04/05 00:45:29;;;;;;;10.15;2.05;;;6.50;99.90;;;;;;5032040;28;20053;-86
2022/04/05 00:47:55;;;;;;;14.52;2.33;;;6.50;99.90;;;;;;5016136;28;20052;-88
2022/04/05 00:50:23;;;;;;;9.30;2.22;;;6.50;99.90;;;;;;5031861;28;20415;-88
2022/04/05 00:52:49;;;;;;;10.00;2.22;;;6.50;99.90;;;;;;5032173;28;20050;-87
2022/04/05 00:55:22;;;;;;;17.15;2.35;;;6.50;99.90;;;;;;5033009;28;20041;-88
2022/04/05 00:57:53;;;;;;;9.55;2.30;;;6.50;99.90;;;;;;5033624;28;20099;-87
2022/04/05 01:00:19;;;;;;;19.48;2.30;;;6.40;99.90;;;;;;5033998;28;20049;-88
2022/04/05 01:02:49;;;;;;;8.32;1.90;;;6.40;99.90;;;;;;5032913;28;20045;-87
2022/04/05 01:05:17;;;;;;;11.52;2.25;;;6.40;99.90;;;;;;5034932;28;20050;-88
2022/04/05 01:07:45;;;;;;;11.98;2.40;;;6.50;99.90;;;;;;5019143;28;20053;-88
2022/04/05 01:10:11;;;;;;;12.32;1.75;;;6.40;99.90;;;;;;5035063;28;20096;-87
2022/04/05 01:12:37;;;;;;;11.82;2.00;;;6.40;99.90;;;;;;5037223;28;20480;-87
2022/04/05 01:15:04;;;;;;;7.00;1.50;;;6.40;99.90;;;;;;5018679;28;20046;-87
2022/04/05 01:17:32;;;;;;;11.85;2.45;;;6.40;99.90;;;;;;5036342;28;20176;-88
2022/04/05 01:19:58;;;;;;;15.65;3.28;;;6.40;99.90;;;;;;5034997;28;20065;-88
2022/04/05 01:22:24;;;;;;;13.88;2.72;;;6.50;99.90;;;;;;5034627;28;20076;-88
2022/04/05 01:24:51;;;;;;;8.85;1.67;;;6.40;99.90;;;;;;5035135;28;20049;-87
2022/04/05 01:27:18;;;;;;;13.40;1.98;;;6.40;99.90;;;;;;5035208;28;20057;-86
2022/04/05 01:29:45;;;;;;;12.55;2.05;;;6.40;99.90;;;;;;5035159;28;20462;-89
2022/04/05 01:32:11;;;;;;;14.73;2.67;;;6.40;99.90;;;;;;5036284;28;20054;-88
2022/04/05 01:34:38;;;;;;;15.52;1.75;;;6.30;99.90;;;;;;5035938;28;20504;-88
2022/04/05 01:37:06;;;;;;;17.73;2.35;;;6.30;99.90;;;;;;5034536;28;20034;-87
2022/04/05 01:39:43;;;;;;;13.57;2.08;;;6.30;99.90;;;;;;5035935;28;20045;-87
2022/04/05 01:44:44;;;;;;;7.60;2.17;;;6.30;99.90;;;;;;3618140;22;20065;-85
2022/04/05 01:47:14;;;;;;;13.45;1.85;;;6.30;99.90;;;;;;5067600;28;20287;-85
2022/04/05 01:49:42;;;;;;;12.30;2.38;;;6.40;99.90;;;;;;5067094;28;20463;-85
2022/04/05 01:52:09;;;;;;;17.83;2.28;;;6.30;99.90;;;;;;5066007;28;20497;-85
2022/04/05 01:54:34;;;;;;;13.60;2.20;;;6.30;99.90;;;;;;5065912;28;20060;-86
2022/04/05 01:57:00;;;;;;;7.35;1.90;;;6.30;99.90;;;;;;5066443;28;20041;-85
2022/04/05 01:59:28;;;;;;;19.15;2.33;;;6.40;99.90;;;;;;5067496;28;20045;-85
2022/04/05 02:01:55;;;;;;;11.38;2.40;;;6.30;99.90;;;;;;5067294;28;20052;-86
2022/04/05 02:04:21;;;;;;;14.27;2.75;;;6.40;99.90;;;;;;5067449;28;20186;-85
2022/04/05 02:06:47;;;;;;;14.80;2.13;;;6.30;99.90;;;;;;5066467;28;20057;-85
2022/04/05 02:09:14;;;;;;;10.90;2.50;;;6.30;99.90;;;;;;5065136;28;20041;-85
2022/04/05 02:11:41;;;;;;;10.07;1.80;;;6.30;99.90;;;;;;5069095;28;20418;-85
2022/04/05 02:14:07;;;;;;;13.52;2.55;;;6.30;99.90;;;;;;5070865;28;20049;-84
2022/04/05 02:16:32;;;;;;;9.48;2.50;;;6.20;99.90;;;;;;5069717;28;20041;-84
2022/04/05 02:18:59;;;;;;;12.93;2.40;;;6.30;99.90;;;;;;5068605;28;20053;-84
2022/04/05 02:21:24;;;;;;;11.82;2.00;;;6.20;99.90;;;;;;5065544;28;20444;-84
2022/04/05 02:23:50;;;;;;;11.68;1.80;;;6.10;99.90;;;;;;5062518;28;20064;-84
2022/04/05 02:26:16;;;;;;;12.27;2.03;;;6.10;99.90;;;;;;5065738;28;20045;-84
2022/04/05 02:28:42;;;;;;;12.20;3.97;;;6.10;99.90;;;;;;5065146;28;20091;-84
2022/04/05 02:31:08;;;;;;;12.43;2.50;;;6.20;99.90;;;;;;5061861;28;20135;-84
2022/04/05 02:33:33;;;;;;;11.95;2.53;;;6.20;99.90;;;;;;5067958;28;20021;-84
2022/04/05 02:35:59;;;;;;;11.75;2.47;;;7.00;99.90;;;;;;5078276;28;20029;-84
2022/04/05 02:38:24;;;;;;;12.43;3.03;;;6.30;99.90;;;;;;5078804;28;20021;-84
2022/04/05 02:40:50;;;;;;;16.13;2.63;;;6.10;99.90;;;;;;5077494;28;20025;-84
2022/04/05 02:43:16;;;;;;;14.63;3.17;;;6.20;99.90;;;;;;5078132;28;20033;-84
2022/04/05 02:45:41;;;;;;;19.98;2.70;;;6.20;99.90;;;;;;5072743;28;20380;-84
2022/04/05 02:48:07;;;;;;;19.17;2.60;;;6.20;99.90;;;;;;5062187;28;20067;-84
2022/04/05 02:50:33;;;;;;;18.02;2.67;;;6.20;99.90;;;;;;5062642;28;20459;-84
2022/04/05 02:52:58;;;;;;;16.67;2.95;;;6.20;99.90;;;;;;5060218;28;20041;-84
2022/04/05 02:55:24;;;;;;;13.88;2.75;;;6.20;99.90;;;;;;5059950;28;20076;-84
2022/04/05 02:57:52;;;;;;;17.95;2.83;;;6.20;99.90;;;;;;5059854;28;20047;-84
2022/04/05 03:00:19;;;;;;;18.52;3.50;;;6.20;99.90;;;;;;5060002;28;20332;-84
2022/04/05 03:02:44;;;;;;;18.33;3.05;;;6.20;99.90;;;;;;5058374;28;20474;-84
2022/04/05 03:05:12;;;;;;;11.45;3.13;;;6.20;99.90;;;;;;5059310;28;20049;-84
2022/04/05 03:07:37;;;;;;;13.20;3.33;;;6.20;99.90;;;;;;5060737;28;20132;-85
2022/04/05 03:10:08;;;;;;;22.60;3.65;;;6.20;99.90;;;;;;5059274;28;20404;-84
2022/04/05 03:12:35;;;;;;;26.55;4.13;;;6.20;99.90;;;;;;5059124;28;20044;-85
2022/04/05 03:15:02;;;;;;;18.52;3.22;;;6.20;99.90;;;;;;5060661;28;20045;-85
2022/04/05 03:17:28;;;;;;;23.90;3.85;;;6.10;99.90;;;;;;5060240;28;20068;-84
2022/04/05 03:19:53;;;;;;;24.15;5.78;;;6.10;99.90;;;;;;5058495;28;20036;-84
2022/04/05 03:22:19;;;;;;;13.45;3.90;;;6.20;99.90;;;;;;5057501;28;20102;-84
2022/04/05 03:24:44;;;;;;;22.15;3.60;;;6.10;99.90;;;;;;5056645;28;20582;-84
2022/04/05 03:27:10;;;;;;;18.00;3.25;;;6.10;99.90;;;;;;5056260;28;20045;-85
2022/04/05 03:29:36;;;;;;;16.30;3.58;;;6.20;99.90;;;;;;5056175;28;20048;-85
2022/04/05 03:32:02;;;;;;;18.85;3.35;;;6.20;99.90;;;;;;5055250;28;20049;-85
2022/04/05 03:34:28;;;;;;;22.65;3.33;;;6.10;99.90;;;;;;5055104;28;20063;-84
2022/04/05 03:36:54;;;;;;;25.63;4.38;;;6.10;99.90;;;;;;5054848;28;20048;-84
2022/04/05 03:39:20;;;;;;;24.35;4.43;;;6.10;99.90;;;;;;5055025;28;20569;-85
2022/04/05 03:41:46;;;;;;;24.80;3.90;;;6.10;99.90;;;;;;5058541;28;20047;-85
2022/04/05 03:44:11;;;;;;;19.73;2.55;;;6.10;99.90;;;;;;5065676;28;20048;-84
2022/04/05 03:46:37;;;;;;;28.95;3.90;;;6.10;99.90;;;;;;5063744;28;20110;-84
2022/04/05 03:49:03;;;;;;;20.05;3.35;;;6.00;99.90;;;;;;5059644;28;20069;-85
2022/04/05 03:51:29;;;;;;;19.10;3.35;;;6.00;99.90;;;;;;5056235;28;20124;-85
2022/04/05 03:53:55;;;;;;;26.73;4.38;;;6.00;99.90;;;;;;5055837;28;20400;-85
2022/04/05 03:56:21;;;;;;;23.50;4.38;;;6.00;99.90;;;;;;5053562;28;20041;-85
2022/04/05 03:58:48;;;;;;;16.42;3.40;;;6.00;99.90;;;;;;5054827;28;20045;-85
2022/04/05 04:01:14;;;;;;;22.15;3.22;;;6.00;99.90;;;;;;5053771;28;20132;-85
2022/04/05 04:03:39;;;;;;;26.48;3.70;;;6.10;99.90;;;;;;5055766;28;20068;-85
2022/04/05 04:06:05;;;;;;;20.92;4.50;;;6.10;99.90;;;;;;5054597;28;20049;-85
2022/04/05 04:08:31;;;;;;;27.58;5.22;;;6.10;99.90;;;;;;5054077;28;20055;-85
2022/04/05 04:10:57;;;;;;;24.48;3.83;;;6.10;99.90;;;;;;5054280;28;20051;-85
2022/04/05 04:13:22;;;;;;;24.95;3.65;;;6.10;99.90;;;;;;5054422;28;20084;-85
2022/04/05 04:15:48;;;;;;;32.63;4.32;;;6.10;99.90;;;;;;5053993;28;20499;-85
2022/04/05 04:18:13;;;;;;;17.27;3.42;;;6.60;99.90;;;;;;5037375;28;20480;-85
2022/04/05 04:20:39;;;;;;;19.38;3.53;;;6.10;99.90;;;;;;5053922;28;20471;-85
2022/04/05 04:23:05;;;;;;;30.55;5.03;;;6.10;99.90;;;;;;5053994;28;20487;-85
2022/04/05 04:25:31;;;;;;;16.88;3.40;;;6.00;99.90;;;;;;5053680;28;20037;-85
2022/04/05 04:27:58;;;;;;;14.30;3.25;;;6.00;99.90;;;;;;5053439;28;20041;-85
2022/04/05 04:30:23;;;;;;;19.75;3.67;;;6.00;99.90;;;;;;5053960;28;20072;-84
2022/04/05 04:32:49;;;;;;;20.98;3.80;;;6.00;99.90;;;;;;5053609;28;20384;-85
2022/04/05 04:35:15;;;;;;;24.42;3.70;;;6.00;99.90;;;;;;5055556;28;20129;-85
2022/04/05 04:37:41;;;;;;;31.58;4.00;;;6.00;99.90;;;;;;5055721;28;20044;-85
2022/04/05 04:40:07;;;;;;;32.08;5.45;;;5.90;99.90;;;;;;5056828;28;20072;-85
2022/04/05 04:42:33;;;;;;;17.35;2.80;;;5.90;99.90;;;;;;5058985;28;20051;-85
2022/04/05 04:44:59;;;;;;;25.88;4.88;;;5.90;99.90;;;;;;5059160;28;20132;-85
2022/04/05 04:47:25;;;;;;;31.15;4.15;;;5.90;99.90;;;;;;5058969;28;20095;-85
2022/04/05 04:49:50;;;;;;;26.05;3.90;;;5.90;99.90;;;;;;5059739;28;20045;-85
2022/04/05 04:52:16;;;;;;;22.35;3.33;;;5.90;99.90;;;;;;5057610;28;20080;-86
2022/04/05 04:54:41;;;;;;;24.80;5.75;;;5.90;99.90;;;;;;5056913;28;20041;-85
2022/04/05 04:57:07;;;;;;;30.35;4.60;;;6.00;99.90;;;;;;5056590;28;20051;-86
2022/04/05 04:59:32;;;;;;;18.50;4.00;;;6.00;99.90;;;;;;5055332;28;20510;-85
2022/04/05 05:01:58;;;;;;;18.17;4.22;;;6.00;99.90;;;;;;5056873;28;20037;-86
2022/04/05 05:04:23;;;;;;;23.75;4.55;;;6.00;99.90;;;;;;5056412;28;20122;-86
2022/04/05 05:06:51;;;;;;;26.80;4.03;;;5.90;99.90;;;;;;5056318;28;20037;-85
2022/04/05 05:09:16;;;;;;;29.95;4.30;;;6.00;99.90;;;;;;5056129;28;20049;-85
2022/04/05 05:11:44;;;;;;;28.88;3.63;;;6.00;99.90;;;;;;5055991;28;20086;-85
2022/04/05 05:14:09;;;;;;;28.48;4.32;;;6.00;99.90;;;;;;5055785;28;20052;-86
2022/04/05 05:16:35;;;;;;;28.35;4.95;;;5.90;99.90;;;;;;5055783;28;20045;-86
2022/04/05 05:19:01;;;;;;;21.60;4.90;;;5.90;99.90;;;;;;5054663;28;20060;-85
2022/04/05 05:21:26;;;;;;;20.52;4.10;;;5.90;99.90;;;;;;5058516;28;20368;-85
2022/04/05 05:23:52;;;;;;;27.77;3.75;;;5.90;99.90;;;;;;5054748;28;20111;-85
2022/04/05 05:26:17;;;;;;;15.60;3.08;;;5.80;99.90;;;;;;5057120;28;20491;-85
2022/04/05 05:28:43;;;;;;;16.48;3.67;;;5.80;99.90;;;;;;5056792;28;20037;-86
2022/04/05 05:31:08;;;;;;;19.83;3.45;;;5.80;99.90;;;;;;5056239;28;20124;-86
2022/04/05 05:33:34;;;;;;;25.38;5.07;;;5.90;99.90;;;;;;5055056;28;20041;-86
2022/04/05 05:35:59;;;;;;;26.17;4.45;;;6.00;99.90;;;;;;5057186;28;20048;-85
2022/04/05 05:38:25;;;;;;;19.92;3.80;;;6.10;99.90;;;;;;5056346;28;20080;-85
2022/04/05 05:40:51;;;;;;;21.52;5.07;;;6.10;99.90;;;;;;5056381;28;20043;-85
2022/04/05 05:43:17;;;;;;;22.65;5.35;;;6.20;99.90;;;;;;5057065;28;20406;-86
2022/04/05 05:45:42;;;;;;;31.75;4.93;;;6.20;99.90;;;;;;5056913;28;20057;-86
2022/04/05 05:48:09;;;;;;;24.75;4.32;;;6.30;99.90;;;;;;5059696;28;20041;-86
2022/04/05 05:50:36;;;;;;;24.10;5.13;;;6.30;99.90;;;;;;5058023;28;20403;-86
2022/04/05 05:53:03;;;;;;;27.17;4.80;;;6.30;99.90;;;;;;5059007;28;20403;-85
2022/04/05 05:55:28;;;;;;;26.33;6.10;;;6.40;99.90;;;;;;5057543;28;20048;-85
2022/04/05 05:57:54;;;;;;;18.45;5.18;;;6.40;99.90;;;;;;5058816;28;20037;-86
2022/04/05 06:00:21;;;;;;;23.42;5.55;;;6.40;99.90;;;;;;5056686;28;20037;-85
2022/04/05 06:02:49;;;;;;;22.75;5.68;;;6.40;99.90;;;;;;5055791;28;20504;-86
2022/04/05 06:05:15;;;;;;;25.35;4.70;;;6.40;99.90;;;;;;5055810;28;20041;-86
2022/04/05 06:07:41;;;;;;;22.30;5.10;;;6.50;99.90;;;;;;5056446;28;20098;-86
2022/04/05 06:10:09;;;;;;;19.92;4.80;;;6.50;99.90;;;;;;5056414;28;20037;-86
2022/04/05 06:12:40;;;;;;;18.95;4.80;;;6.50;99.90;;;;;;5055881;28;20098;-86
2022/04/05 06:15:08;;;;;;;15.25;4.70;;;6.50;99.90;;;;;;5056279;28;20045;-86
2022/04/05 06:17:39;;;;;;;27.95;6.60;;;6.50;99.90;;;;;;5055363;28;20064;-86
2022/04/05 06:20:07;;;;;;;18.65;4.75;;;6.60;99.90;;;;;;5055916;28;20368;-86
2022/04/05 06:22:46;;;;;;;17.55;5.03;;;6.60;99.90;;;;;;5054616;28;20495;-86
2022/04/05 06:25:14;;;;;;;20.25;5.00;;;6.60;99.90;;;;;;5055896;28;20045;-86
2022/04/05 06:27:40;;;;;;;24.05;5.47;;;6.70;99.90;;;;;;5053480;28;20045;-86
2022/04/05 06:30:07;;;;;;;15.80;4.43;;;6.70;99.90;;;;;;5056153;28;20508;-86
2022/04/05 06:32:33;;;;;;;19.92;4.68;;;6.70;99.90;;;;;;5054001;28;20123;-86
2022/04/05 06:34:58;;;;;;;22.38;4.18;;;6.70;99.90;;;;;;5054254;28;20179;-85
2022/04/05 06:37:24;;;;;;;17.90;4.22;;;6.70;99.90;;;;;;5055591;28;20044;-86
2022/04/05 06:39:49;;;;;;;16.40;3.78;;;6.70;99.90;;;;;;5055450;28;20041;-85
2022/04/05 06:42:15;;;;;;;16.10;3.95;;;6.80;99.90;;;;;;5055458;28;20140;-85
2022/04/05 06:44:41;;;;;;;16.50;4.30;;;6.80;99.90;;;;;;5055256;28;20088;-86
2022/04/05 06:47:08;;;;;;;19.67;4.00;;;6.90;99.90;;;;;;5053869;28;20041;-86
2022/04/05 06:49:34;;;;;;;12.45;3.33;;;6.90;99.90;;;;;;5054110;28;20044;-86
2022/04/05 06:52:00;;;;;;;14.40;3.75;;;7.00;99.90;;;;;;5055148;28;20041;-85
2022/04/05 06:54:25;;;;;;;12.88;3.53;;;7.10;99.90;;;;;;5054614;28;20396;-85
2022/04/05 06:56:51;;;;;;;20.88;3.70;;;7.20;99.90;;;;;;5058267;28;20403;-86
2022/04/05 06:59:16;;;;;;;13.68;4.15;;;7.20;99.90;;;;;;5056477;28;20048;-86
2022/04/05 07:01:42;;;;;;;23.83;5.47;;;7.40;99.90;;;;;;5053997;28;20044;-86
2022/04/05 07:04:07;;;;;;;16.08;4.70;;;7.60;99.90;;;;;;5056892;28;20083;-86
2022/04/05 07:06:33;;;;;;;11.50;4.53;;;7.90;99.90;;;;;;5058539;28;20490;-85
2022/04/05 07:08:59;;;;;;;13.85;3.53;;;7.90;99.90;;;;;;5056625;28;20163;-86
2022/04/05 07:11:25;;;;;;;19.23;4.40;;;8.00;99.90;;;;;;5068554;28;20044;-85
2022/04/05 07:13:51;;;;;;;20.35;4.55;;;8.10;99.90;;;;;;5076953;28;20062;-85
2022/04/05 07:16:18;;;;;;;10.73;3.50;;;8.10;99.90;;;;;;5071947;28;20071;-86
2022/04/05 07:18:44;;;;;;;13.63;3.90;;;8.00;99.90;;;;;;5057820;28;20041;-87
2022/04/05 07:21:12;;;;;;;14.95;3.85;;;8.10;99.90;;;;;;5056471;28;20037;-86
2022/04/05 07:23:38;;;;;;;12.85;3.33;;;8.80;99.90;;;;;;5054821;28;20060;-86
2022/04/05 07:26:04;;;;;;;16.48;4.00;;;8.10;99.90;;;;;;5053708;28;20049;-86
2022/04/05 07:28:29;;;;;;;7.60;2.63;;;8.00;99.90;;;;;;5055554;28;20395;-86
2022/04/05 07:30:55;;;;;;;14.18;3.22;;;8.10;99.90;;;;;;5055464;28;20575;-85
2022/04/05 07:33:21;;;;;;;16.08;3.63;;;8.10;99.90;;;;;;5054727;28;20043;-86
2022/04/05 07:35:46;;;;;;;6.78;2.35;;;8.10;99.90;;;;;;5054175;28;20116;-86
2022/04/05 07:38:12;;;;;;;6.30;2.50;;;8.10;99.90;;;;;;5058454;28;20124;-86
2022/04/05 07:40:47;;;;;;;12.35;2.97;;;8.20;99.90;;;;;;5058035;28;20398;-85
2022/04/05 07:43:19;;;;;;;10.68;2.53;;;8.10;99.90;;;;;;5053776;28;20040;-85
2022/04/05 07:45:48;;;;;;;10.00;2.30;;;8.00;99.90;;;;;;5053315;28;20052;-86
2022/04/05 07:48:14;;;;;;;10.48;2.70;;;8.00;99.90;;;;;;5055314;28;20060;-86
2022/04/05 07:50:40;;;;;;;11.82;2.38;;;7.90;99.90;;;;;;5054811;28;20041;-85
2022/04/05 07:53:05;;;;;;;20.50;3.00;;;7.90;99.90;;;;;;5054775;28;20041;-86
2022/04/05 07:55:31;;;;;;;11.80;3.13;;;8.00;99.90;;;;;;5054999;28;20047;-86
2022/04/05 07:57:57;;;;;;;11.05;3.45;;;8.10;99.90;;;;;;5052380;28;20045;-86
2022/04/05 08:00:24;;;;;;;11.02;3.67;;;8.20;99.90;;;;;;5053593;28;20037;-85
2022/04/05 08:02:50;;;;;;;7.60;2.75;;;8.20;99.90;;;;;;5055335;28;20049;-86
2022/04/05 08:05:16;;;;;;;9.65;2.35;;;8.10;99.90;;;;;;5056064;28;20545;-85
2022/04/05 08:07:42;;;;;;;10.02;3.45;;;8.00;99.90;;;;;;5055541;28;20045;-85
2022/04/05 08:10:08;;;;;;;11.07;3.40;;;7.90;99.90;;;;;;5054665;28;20066;-85
2022/04/05 08:12:42;;;;;;;10.50;2.72;;;7.90;99.90;;;;;;5061921;28;20120;-84
2022/04/05 08:15:09;;;;;;;11.80;2.90;;;8.70;99.90;;;;;;5069141;28;20033;-85
2022/04/05 08:17:35;;;;;;;10.43;3.72;;;8.00;99.90;;;;;;5064319;28;20047;-85
2022/04/05 08:20:00;;;;;;;13.07;3.38;;;8.10;99.90;;;;;;5058696;28;20551;-85
2022/04/05 08:22:26;;;;;;;8.63;3.30;;;8.20;99.90;;;;;;5057836;28;20037;-85
2022/04/05 08:24:51;;;;;;;12.55;3.38;;;8.20;99.90;;;;;;5058168;28;20041;-85
2022/04/05 08:27:17;;;;;;;11.20;3.42;;;8.30;99.90;;;;;;5070425;28;20029;-85
2022/04/05 08:29:42;;;;;;;10.85;3.38;;;8.40;99.90;;;;;;5057882;28;20037;-85
2022/04/05 08:32:08;;;;;;;10.32;3.50;;;8.40;99.90;;;;;;5057425;28;20186;-84
2022/04/05 08:34:35;;;;;;;13.25;2.88;;;8.30;99.90;;;;;;5056691;28;20077;-84
2022/04/05 08:37:01;;;;;;;10.75;3.00;;;8.30;99.90;;;;;;5056356;28;20055;-84
2022/04/05 08:39:28;;;;;;;14.65;2.78;;;8.40;99.90;;;;;;5055983;28;20055;-84
2022/04/05 08:41:55;;;;;;;13.55;3.60;;;8.40;99.90;;;;;;5056044;28;20318;-84
2022/04/05 08:44:23;;;;;;;8.93;2.58;;;8.60;99.90;;;;;;5055079;28;20128;-84
2022/04/05 08:46:50;;;;;;;10.75;2.60;;;8.70;99.90;;;;;;5057456;28;20045;-85
2022/04/05 08:49:16;;;;;;;15.85;2.40;;;8.80;99.90;;;;;;5057130;28;20048;-87
2022/04/05 08:51:41;;;;;;;13.27;3.58;;;9.00;99.90;;;;;;5057456;28;20045;-87
2022/04/05 08:54:07;;;;;;;9.30;2.75;;;9.20;99.90;;;;;;5057449;28;20049;-85
2022/04/05 08:56:33;;;;;;;6.18;2.22;;;9.30;99.90;;;;;;5058331;28;20479;-85
2022/04/05 08:58:59;;;;;;;8.75;2.22;;;9.60;99.90;;;;;;5060639;28;20377;-85
2022/04/05 09:01:29;;;;;;;6.55;2.05;;;10.00;99.90;;;;;;5061221;28;20037;-85
2022/04/05 09:03:56;;;;;;;6.65;2.15;;;10.20;99.90;;;;;;5062937;28;20402;-85
2022/04/05 09:06:33;;;;;;;5.20;1.80;;;10.50;99.90;;;;;;5063697;28;20049;-85
2022/04/05 09:09:11;;;;;;;9.82;2.72;;;10.70;99.90;;;;;;5065787;28;20120;-84
2022/04/05 09:11:50;;;;;;;6.47;1.35;;;10.80;99.90;;;;;;5063238;28;20044;-85
2022/04/05 09:14:22;;;;;;;9.13;2.05;;;10.60;99.90;;;;;;5040542;28;20053;-84
2022/04/05 09:17:06;;;;;;;7.57;1.52;;;10.50;99.90;;;;;;5056745;28;20080;-84
2022/04/05 09:19:48;;;;;;;7.15;2.40;;;10.60;99.90;;;;;;5057997;28;20037;-85
2022/04/05 09:22:15;;;;;;;3.25;1.17;;;10.70;99.90;;;;;;5057570;28;20083;-85
2022/04/05 09:24:45;;;;;;;5.30;1.23;;;10.70;99.90;;;;;;5056940;28;20071;-85
2022/04/05 09:27:12;;;;;;;5.38;1.25;;;10.70;99.90;;;;;;5059966;28;20037;-85
2022/04/05 09:29:47;;;;;;;6.00;1.92;;;10.90;99.90;;;;;;5058612;28;20037;-85
2022/04/05 09:32:37;;;;;;;6.32;1.35;;;10.80;99.90;;;;;;5055852;28;20052;-85
2022/04/05 09:35:05;;;;;;;5.85;1.60;;;10.80;99.90;;;;;;5056052;28;20063;-85
2022/04/05 09:37:36;;;;;;;8.40;1.83;;;10.70;99.90;;;;;;5061110;28;20491;-84
2022/04/05 09:40:32;;;;;;;7.65;1.45;;;10.60;99.90;;;;;;5058135;28;20053;-85
2022/04/05 09:43:00;;;;;;;6.72;1.70;;;10.50;99.90;;;;;;5057630;28;20090;-84
2022/04/05 09:45:45;;;;;;;10.70;1.60;;;10.50;99.90;;;;;;5056865;28;20511;-84
2022/04/05 09:48:11;;;;;;;9.02;1.33;;;10.50;99.90;;;;;;5058630;28;20391;-84
2022/04/05 09:50:57;;;;;;;9.18;1.63;;;10.60;99.90;;;;;;5057135;28;20060;-85
2022/04/05 09:53:23;;;;;;;4.15;1.33;;;10.60;99.90;;;;;;5055829;28;20124;-85
2022/04/05 09:56:04;;;;;;;9.25;1.95;;;10.30;99.90;;;;;;5056961;28;20495;-85
2022/04/05 09:58:30;;;;;;;5.20;1.90;;;10.00;99.90;;;;;;5057106;28;20056;-86
2022/04/05 10:01:08;;;;;;;2.63;1.08;;;9.90;99.90;;;;;;5036779;28;20045;-85
2022/04/05 10:03:56;;;;;;;8.77;1.70;;;9.80;99.90;;;;;;5053978;28;20456;-85
2022/04/05 10:06:22;;;;;;;4.18;1.42;;;9.70;99.90;;;;;;5053004;28;20045;-85
2022/04/05 10:08:48;;;;;;;5.18;1.42;;;9.60;99.90;;;;;;5053925;28;20060;-85
2022/04/05 10:11:14;;;;;;;7.18;1.63;;;9.50;99.90;;;;;;5054334;28;20053;-85
2022/04/05 10:13:41;;;;;;;8.23;2.10;;;9.60;99.90;;;;;;5052915;28;20041;-85
2022/04/05 10:16:10;;;;;;;10.13;2.10;;;9.50;99.90;;;;;;5054501;28;20041;-85
2022/04/05 10:18:37;;;;;;;10.23;2.17;;;9.60;99.90;;;;;;5033709;28;20098;-85
2022/04/05 10:21:04;;;;;;;20.73;2.88;;;9.70;99.90;;;;;;5033804;28;20053;-85
2022/04/05 10:23:31;;;;;;;5.47;1.67;;;9.70;99.90;;;;;;5047795;28;20049;-85
2022/04/05 10:25:58;;;;;;;5.20;1.55;;;9.80;99.90;;;;;;5053144;28;20403;-85
2022/04/05 10:28:27;;;;;;;5.53;1.73;;;9.90;99.90;;;;;;5052617;28;20519;-86
2022/04/05 10:31:26;;;;;;;8.27;2.13;;;9.90;99.90;;;;;;5044334;28;20543;-87
2022/04/05 10:34:11;;;;;;;4.97;2.20;;;9.90;99.90;;;;;;5021215;28;20053;-84
2022/04/05 10:36:37;;;;;;;5.68;1.92;;;9.90;99.90;;;;;;5053995;28;20452;-85
2022/04/05 10:39:15;;;;;;;3.90;1.90;;;9.90;99.90;;;;;;5056387;28;20047;-85
2022/04/05 10:42:01;;;;;;;4.88;2.08;;;9.80;99.90;;;;;;5054390;28;20040;-85
2022/04/05 10:44:27;;;;;;;4.72;1.75;;;9.70;99.90;;;;;;5054221;28;20052;-85
2022/04/05 10:46:57;;;;;;;5.97;1.80;;;9.70;99.90;;;;;;5054630;28;20052;-86
2022/04/05 10:49:42;;;;;;;4.95;2.47;;;9.60;99.90;;;;;;5053603;28;20049;-85
2022/04/05 10:52:12;;;;;;;3.40;1.58;;;9.60;99.90;;;;;;5053385;28;20503;-86
2022/04/05 10:54:49;;;;;;;6.85;1.63;;;9.70;99.90;;;;;;5053292;28;20396;-85
2022/04/05 10:57:17;;;;;;;2.83;1.05;;;9.90;99.90;;;;;;5053442;28;20048;-85
2022/04/05 10:59:53;;;;;;;5.88;2.85;;;10.00;99.90;;;;;;5054306;28;20041;-85
2022/04/05 11:02:30;;;;;;;8.07;1.60;;;10.10;99.90;;;;;;5054457;28;20044;-85
2022/04/05 11:05:25;;;;;;;2.67;1.45;;;10.40;99.90;;;;;;5054045;28;20040;-85
2022/04/05 11:07:59;;;;;;;4.55;1.52;;;10.70;99.90;;;;;;5054336;28;20060;-85
2022/04/05 11:10:45;;;;;;;5.28;1.48;;;11.00;99.90;;;;;;5054021;28;20045;-85
2022/04/05 11:13:29;;;;;;;2.27;1.50;;;11.10;99.90;;;;;;5054234;28;20130;-85
2022/04/05 11:15:56;;;;;;;2.10;1.13;;;11.10;99.90;;;;;;5054216;28;20081;-85
2022/04/05 11:18:24;;;;;;;2.10;0.90;;;10.90;99.90;;;;;;5035951;28;20041;-85
2022/04/05 11:20:52;;;;;;;1.83;0.80;;;10.60;99.90;;;;;;5052995;28;20491;-85
2022/04/05 11:23:20;;;;;;;1.70;0.98;;;10.70;99.90;;;;;;5054047;28;20041;-85
2022/04/05 11:25:47;;;;;;;1.95;0.80;;;10.70;99.90;;;;;;5052262;28;20398;-85
2022/04/05 11:28:19;;;;;;;1.92;0.85;;;10.80;99.90;;;;;;5051924;28;20483;-85
2022/04/05 11:30:49;;;;;;;2.42;1.17;;;11.00;99.90;;;;;;5053670;28;20043;-85
2022/04/05 11:33:33;;;;;;;23.23;2.78;;;11.50;99.90;;;;;;5054202;28;20048;-85
2022/04/05 11:36:07;;;;;;;1.63;0.88;;;12.30;99.90;;;;;;5054362;28;20041;-86
2022/04/05 11:38:47;;;;;;;1.85;1.00;;;12.60;99.90;;;;;;5055477;28;20049;-86
2022/04/05 11:41:26;;;;;;;3.20;1.00;;;12.50;99.90;;;;;;5052590;28;20052;-86
2022/04/05 11:43:55;;;;;;;2.03;1.10;;;12.40;99.90;;;;;;5053525;28;20045;-86
2022/04/05 11:46:28;;;;;;;3.05;1.20;;;12.20;99.90;;;;;;5053277;28;20053;-85
2022/04/05 11:48:56;;;;;;;1.92;1.00;;;11.90;99.90;;;;;;5053097;28;20121;-85
2022/04/05 11:51:32;;;;;;;1.98;1.00;;;11.70;99.90;;;;;;5053107;28;20037;-85
2022/04/05 11:54:10;;;;;;;1.45;0.95;;;11.60;99.90;;;;;;5054296;28;20074;-85
2022/04/05 11:56:37;;;;;;;1.95;1.00;;;11.60;99.90;;;;;;5053463;28;20102;-86
2022/04/05 11:59:05;;;;;;;1.98;1.08;;;11.60;99.90;;;;;;5053980;28;20094;-85
2022/04/05 12:01:36;;;;;;;5.05;1.10;;;11.70;99.90;;;;;;5053710;28;20434;-85
2022/04/05 12:04:04;;;;;;;1.70;1.00;;;11.90;99.90;;;;;;5056431;28;20452;-85
2022/04/05 12:06:33;;;;;;;1.70;1.00;;;12.20;99.90;;;;;;5054302;28;20072;-85
2022/04/05 12:09:02;;;;;;;1.40;0.88;;;12.30;99.90;;;;;;5053410;28;20515;-85
2022/04/05 12:11:31;;;;;;;2.08;1.30;;;12.30;99.90;;;;;;5052824;28;20101;-86
2022/04/05 12:14:04;;;;;;;1.90;1.20;;;12.30;99.90;;;;;;5053885;28;20041;-86
2022/04/05 12:16:49;;;;;;;2.13;1.08;;;12.30;99.90;;;;;;5054244;28;20056;-85
2022/04/05 12:19:32;;;;;;;2.53;1.27;;;12.40;99.90;;;;;;5053825;28;20170;-85
2022/04/05 12:22:09;;;;;;;1.90;1.10;;;12.50;99.90;;;;;;5054402;28;20047;-85
2022/04/05 12:24:41;;;;;;;2.25;1.15;;;12.60;99.90;;;;;;5052818;28;20079;-85
2022/04/05 12:27:07;;;;;;;1.55;0.93;;;12.60;99.90;;;;;;5053146;28;20061;-85
2022/04/05 12:29:39;;;;;;;2.55;1.55;;;12.50;99.90;;;;;;5053358;28;20138;-85
2022/04/05 12:32:09;;;;;;;1.92;1.23;;;12.30;99.90;;;;;;5053345;28;20041;-85
2022/04/05 12:34:36;;;;;;;2.05;1.20;;;12.30;99.90;;;;;;5055896;28;20056;-85
2022/04/05 12:37:05;;;;;;;3.20;1.55;;;12.50;99.90;;;;;;5056004;28;20041;-85
2022/04/05 12:39:32;;;;;;;2.80;1.38;;;12.50;99.90;;;;;;5055054;28;20515;-85
2022/04/05 12:42:01;;;;;;;2.70;1.42;;;12.40;99.90;;;;;;5052123;28;20049;-85
2022/04/05 12:44:32;;;;;;;3.03;1.50;;;12.40;99.90;;;;;;5053509;28;20398;-85
2022/04/05 12:47:07;;;;;;;3.25;1.73;;;12.40;99.90;;;;;;5053016;28;20044;-85
2022/04/05 12:49:41;;;;;;;3.67;2.33;;;12.30;99.90;;;;;;5052463;28;20175;-85
2022/04/05 12:52:20;;;;;;;3.00;1.55;;;12.40;99.90;;;;;;5053324;28;20083;-85
2022/04/05 12:54:54;;;;;;;2.85;1.80;;;12.30;99.90;;;;;;5052189;28;20072;-85
2022/04/05 12:57:36;;;;;;;4.45;1.92;;;12.20;99.90;;;;;;5052694;28;20621;-85